createdAt,value
2022-11-01T00:03:07.016Z,100216.44
2022-11-01T00:08:19.865Z,100211.47
2022-11-01T00:13:31.887Z,100206.31
2022-11-01T00:18:37.850Z,100198.22
2022-11-01T00:23:43.512Z,100200.00
2022-11-01T00:28:57.905Z,100196.34
2022-11-01T00:34:07.549Z,100184.13
2022-11-01T00:39:18.700Z,100184.44
2022-11-01T00:44:25.528Z,100185.91
2022-11-01T00:49:37.052Z,100174.19
2022-11-01T00:54:48.559Z,100178.63
2022-11-01T01:00:04.755Z,100170.22
2022-11-01T01:05:11.914Z,100175.94
2022-11-01T01:10:20.693Z,100186.13
2022-11-01T01:15:29.537Z,100190.34
2022-11-01T01:20:35.957Z,100181.44
2022-11-01T01:25:49.260Z,100188.00
2022-11-01T01:30:58.935Z,100187.13
2022-11-01T01:36:12.117Z,100180.66
2022-11-01T01:41:38.064Z,100180.13
2022-11-01T01:46:48.306Z,100170.09
2022-11-01T01:51:56.427Z,100168.41
2022-11-01T01:57:36.951Z,100161.69
2022-11-01T02:02:55.213Z,100148.84
2022-11-01T02:08:13.322Z,100135.97
2022-11-01T02:13:19.552Z,100128.94
2022-11-01T02:18:42.529Z,100113.16
2022-11-01T02:24:27.074Z,100119.91
2022-11-01T02:30:19.719Z,100144.25
2022-11-01T02:35:49.469Z,100137.34
2022-11-01T02:41:08.440Z,100139.00
2022-11-01T02:46:31.613Z,100130.59
2022-11-01T02:52:00.172Z,100125.63
2022-11-01T02:57:24.909Z,100133.13
2022-11-01T03:02:50.365Z,100143.50
2022-11-01T03:08:14.199Z,100143.19
2022-11-01T03:13:45.909Z,100139.91
2022-11-01T03:19:15.451Z,100154.03
2022-11-01T03:24:43.502Z,100150.69
2022-11-01T03:30:04.987Z,100164.47
2022-11-01T03:35:15.811Z,100151.63
2022-11-01T03:51:35.753Z,100156.19
2022-11-01T03:56:42.114Z,100151.91
2022-11-01T04:02:03.262Z,100149.44
2022-11-01T04:07:10.927Z,100148.63
2022-11-01T04:12:34.270Z,100153.88
2022-11-01T04:17:56.866Z,100160.09
2022-11-01T04:23:18.264Z,100173.25
2022-11-01T04:28:30.380Z,100171.28
2022-11-01T04:33:48.675Z,100177.75
2022-11-01T04:39:00.904Z,100148.38
2022-11-01T04:44:08.254Z,100120.00
2022-11-01T04:49:15.212Z,100132.28
2022-11-01T04:54:22.479Z,100126.69
2022-11-01T04:59:31.661Z,100124.50
2022-11-01T05:04:36.860Z,100141.41
2022-11-01T05:09:48.939Z,100159.22
2022-11-01T05:14:56.841Z,100132.75
2022-11-01T05:20:03.201Z,100137.03
2022-11-01T05:25:21.346Z,100142.00
2022-11-01T05:30:55.296Z,100153.31
2022-11-01T05:36:14.789Z,100145.31
2022-11-01T05:41:25.984Z,100141.25
2022-11-01T05:46:32.470Z,100169.41
2022-11-01T05:51:58.437Z,100145.94
2022-11-01T05:57:13.216Z,100159.16
2022-11-01T06:02:41.635Z,100139.44
2022-11-01T06:07:50.845Z,100155.25
2022-11-01T06:13:13.464Z,100153.00
2022-11-01T06:18:27.965Z,100182.00
2022-11-01T06:23:39.201Z,100177.91
2022-11-01T06:28:55.008Z,100158.03
2022-11-01T06:34:17.835Z,100188.66
2022-11-01T06:39:38.096Z,100209.13
2022-11-01T06:45:02.037Z,100249.94
2022-11-01T06:50:13.681Z,100278.59
2022-11-01T06:55:34.016Z,100276.31
2022-11-01T07:01:06.717Z,100276.22
2022-11-01T07:06:13.536Z,100277.16
2022-11-01T07:11:36.936Z,100276.56
2022-11-01T07:16:44.697Z,100286.31
2022-11-01T07:22:09.978Z,100276.00
2022-11-01T07:27:20.547Z,100272.44
2022-11-01T07:32:33.333Z,100264.06
2022-11-01T07:37:48.228Z,100264.75
2022-11-01T07:43:02.170Z,100256.84
2022-11-01T07:48:34.197Z,100275.97
2022-11-01T07:53:49.925Z,100264.22
2022-11-01T07:58:59.964Z,100282.19
2022-11-01T08:04:30.682Z,100295.91
2022-11-01T08:09:54.072Z,100299.97
2022-11-01T08:15:21.143Z,100304.25
2022-11-01T08:20:28.006Z,100300.44
2022-11-01T08:25:38.871Z,100295.50
2022-11-01T08:30:48.119Z,100311.66
2022-11-01T08:36:10.777Z,100312.16
2022-11-01T08:41:44.578Z,100320.91
2022-11-01T08:47:02.424Z,100331.81
2022-11-01T08:52:26.836Z,100338.34
2022-11-01T09:03:30.822Z,100334.56
2022-11-01T09:08:40.445Z,100328.81
2022-11-01T09:14:09.401Z,100314.31
2022-11-01T09:19:32.535Z,100316.63
2022-11-01T09:24:45.903Z,100335.09
2022-11-01T09:30:10.905Z,100350.38
2022-11-01T09:35:22.729Z,100339.22
2022-11-01T09:40:49.195Z,100361.94
2022-11-01T09:46:02.421Z,100373.28
2022-11-01T09:51:21.402Z,100386.81
2022-11-01T09:56:39.970Z,100386.69
2022-11-01T10:02:09.895Z,100396.47
2022-11-01T10:07:32.950Z,100391.16
2022-11-01T10:12:57.198Z,100391.47
2022-11-01T10:18:28.118Z,100394.34
2022-11-01T10:23:41.078Z,100396.47
2022-11-01T10:28:51.758Z,100396.22
2022-11-01T10:34:01.322Z,100392.97
2022-11-01T10:44:42.542Z,100375.13
2022-11-01T10:50:05.315Z,100396.06
2022-11-01T10:55:15.511Z,100412.63
2022-11-01T11:00:21.535Z,100400.63
2022-11-01T11:05:29.192Z,100402.75
2022-11-01T11:10:32.364Z,100402.69
2022-11-01T11:15:41.771Z,100403.75
2022-11-01T11:20:52.485Z,100405.72
2022-11-01T11:26:02.398Z,100416.50
2022-11-01T11:31:18.645Z,100403.88
2022-11-01T11:36:30.463Z,100403.94
2022-11-01T11:41:36.315Z,100396.25
2022-11-01T11:46:57.111Z,100388.72
2022-11-01T11:52:01.517Z,100390.22
2022-11-01T11:57:12.715Z,100398.88
2022-11-01T12:02:21.593Z,100390.47
2022-11-01T12:07:38.268Z,100395.22
2022-11-01T12:12:42.669Z,100396.16
2022-11-01T12:17:47.514Z,100412.97
2022-11-01T12:22:59.089Z,100405.00
2022-11-01T12:28:04.787Z,100418.09
2022-11-01T12:33:21.522Z,100413.59
2022-11-01T12:38:42.849Z,100428.72
2022-11-01T12:43:57.232Z,100432.78
2022-11-01T12:49:06.317Z,100436.44
2022-11-01T12:54:16.273Z,100429.75
2022-11-01T12:59:29.945Z,100443.66
2022-11-01T13:04:37.322Z,100437.50
2022-11-01T13:09:51.313Z,100424.97
2022-11-01T13:15:04.502Z,100433.78
2022-11-01T13:20:22.763Z,100439.09
2022-11-01T13:25:37.447Z,100441.94
2022-11-01T13:30:47.966Z,100449.72
2022-11-01T13:35:59.146Z,100455.97
2022-11-01T13:41:19.660Z,100455.50
2022-11-01T13:46:34.925Z,100442.75
2022-11-01T13:51:43.076Z,100456.50
2022-11-01T13:56:54.910Z,100458.16
2022-11-01T14:02:14.630Z,100461.69
2022-11-01T14:07:18.048Z,100458.94
2022-11-01T14:12:37.604Z,100460.75
2022-11-01T14:18:04.424Z,100472.22
2022-11-01T14:23:52.713Z,100471.13
2022-11-01T14:28:59.772Z,100464.22
2022-11-01T14:34:07.261Z,100468.63
2022-11-01T14:39:20.476Z,100470.09
2022-11-01T14:44:32.374Z,100473.66
2022-11-01T14:49:42.438Z,100476.19
2022-11-01T14:54:51.509Z,100474.28
2022-11-01T14:59:57.217Z,100473.34
2022-11-01T15:05:02.009Z,100480.53
2022-11-01T15:10:07.719Z,100474.19
2022-11-01T15:15:16.100Z,100478.06
2022-11-01T15:20:20.880Z,100488.41
2022-11-01T15:25:26.670Z,100490.00
2022-11-01T15:30:33.612Z,100494.84
2022-11-01T15:35:36.947Z,100497.91
2022-11-01T15:40:40.875Z,100495.81
2022-11-01T15:45:46.206Z,100502.28
2022-11-01T15:50:53.080Z,100507.09
2022-11-01T15:56:02.272Z,100504.00
2022-11-01T16:01:14.367Z,100507.69
2022-11-01T16:06:23.009Z,100512.47
2022-11-01T16:11:29.458Z,100513.84
2022-11-01T16:16:58.683Z,100512.19
2022-11-01T16:22:01.636Z,100517.69
2022-11-01T16:27:04.707Z,100532.22
2022-11-01T16:32:17.886Z,100537.63
2022-11-01T16:37:22.742Z,100542.91
2022-11-01T16:42:26.563Z,100537.25
2022-11-01T16:47:31.158Z,100531.00
2022-11-01T16:52:35.765Z,100538.06
2022-11-01T16:57:39.731Z,100545.13
2022-11-01T17:02:44.253Z,100553.66
2022-11-01T17:07:47.921Z,100554.28
2022-11-01T17:12:51.036Z,100564.59
2022-11-01T17:17:56.125Z,100575.38
2022-11-01T17:22:59.813Z,100578.47
2022-11-01T17:28:03.365Z,100582.72
2022-11-01T17:33:08.132Z,100586.13
2022-11-01T17:38:15.615Z,100582.13
2022-11-01T17:43:20.014Z,100590.97
2022-11-01T17:48:24.424Z,100595.50
2022-11-01T17:53:27.365Z,100596.25
2022-11-01T17:58:30.323Z,100598.53
2022-11-01T18:03:34.648Z,100602.59
2022-11-01T18:08:44.876Z,100612.59
2022-11-01T18:14:03.576Z,100611.25
2022-11-01T18:19:20.584Z,100613.66
2022-11-01T18:24:31.778Z,100612.47
2022-11-01T18:29:40.054Z,100614.72
2022-11-01T18:34:49.274Z,100615.44
2022-11-01T18:39:59.212Z,100619.78
2022-11-01T18:45:16.361Z,100626.94
2022-11-01T18:50:26.149Z,100619.22
2022-11-01T18:55:33.165Z,100629.13
2022-11-01T19:00:36.380Z,100636.78
2022-11-01T19:05:41.267Z,100634.88
2022-11-01T19:10:44.300Z,100642.22
2022-11-01T19:15:53.106Z,100650.00
2022-11-01T19:21:00.372Z,100654.22
2022-11-01T19:26:04.078Z,100660.19
2022-11-01T19:31:15.718Z,100660.59
2022-11-01T19:36:22.210Z,100657.72
2022-11-01T19:41:31.137Z,100662.56
2022-11-01T19:46:39.409Z,100662.44
2022-11-01T19:51:46.245Z,100660.50
2022-11-01T19:56:50.246Z,100668.25
2022-11-01T20:02:09.911Z,100678.34
2022-11-01T20:07:26.957Z,100684.44
2022-11-01T20:12:30.217Z,100685.81
2022-11-01T20:17:33.775Z,100687.34
2022-11-01T20:22:38.363Z,100696.47
2022-11-01T20:27:41.328Z,100699.53
2022-11-01T20:32:44.590Z,100693.84
2022-11-01T20:37:48.979Z,100688.16
2022-11-01T20:42:52.406Z,100684.84
2022-11-01T20:47:55.364Z,100696.59
2022-11-01T20:52:59.818Z,100698.53
2022-11-01T20:58:03.888Z,100695.34
2022-11-01T21:03:14.483Z,100694.66
2022-11-01T21:08:23.025Z,100705.56
2022-11-01T21:13:30.367Z,100705.84
2022-11-01T21:18:43.704Z,100710.69
2022-11-01T21:23:48.504Z,100710.38
2022-11-01T21:28:53.886Z,100710.91
2022-11-01T21:33:58.438Z,100709.66
2022-11-01T21:39:04.591Z,100703.00
2022-11-01T21:44:21.830Z,100707.69
2022-11-01T21:49:30.655Z,100695.25
2022-11-01T21:54:36.857Z,100695.75
2022-11-01T21:59:40.150Z,100699.59
2022-11-01T22:04:44.098Z,100699.00
2022-11-01T22:09:48.632Z,100702.03
2022-11-01T22:14:51.658Z,100701.84
2022-11-01T22:19:54.675Z,100701.41
2022-11-01T22:24:59.331Z,100699.75
2022-11-01T22:30:02.507Z,100703.34
2022-11-01T22:35:06.157Z,100710.38
2022-11-01T22:40:15.113Z,100705.28
2022-11-01T22:45:19.592Z,100709.81
2022-11-01T22:50:28.985Z,100709.94
2022-11-01T22:55:43.997Z,100707.69
2022-11-01T23:00:47.660Z,100708.94
2022-11-01T23:05:52.414Z,100715.41
2022-11-01T23:10:57.893Z,100720.44
2022-11-01T23:16:02.652Z,100717.38
2022-11-01T23:21:08.214Z,100737.91
2022-11-01T23:26:14.377Z,100735.78
2022-11-01T23:31:17.959Z,100737.13
2022-11-01T23:36:24.082Z,100733.34
2022-11-01T23:41:33.632Z,100729.34
2022-11-01T23:46:36.881Z,100722.81
2022-11-01T23:51:40.069Z,100724.13
2022-11-01T23:56:44.892Z,100737.50
